sensor_id;sensor_type;location;lat;lon;timestamp;P1;durP1;ratioP1;P2;durP2;ratioP2
4434;SDS011;46552;52.150;8.428;2022-10-26T00:01:01;13.03;;;6.70;;
4434;SDS011;46552;52.150;8.428;2022-10-26T00:03:29;10.60;;;6.80;;
4434;SDS011;46552;52.150;8.428;2022-10-26T00:06:01;22.93;;;8.00;;
4434;SDS011;46552;52.150;8.428;2022-10-26T00:08:30;12.50;;;7.40;;
4434;SDS011;46552;52.150;8.428;2022-10-26T00:10:59;11.03;;;6.93;;
4434;SDS011;46552;52.150;8.428;2022-10-26T00:13:28;10.17;;;6.87;;
4434;SDS011;46552;52.150;8.428;2022-10-26T00:15:55;17.10;;;7.43;;
4434;SDS011;46552;52.150;8.428;2022-10-26T00:18:23;15.83;;;7.23;;
4434;SDS011;46552;52.150;8.428;2022-10-26T00:20:51;13.40;;;8.30;;
4434;SDS011;46552;52.150;8.428;2022-10-26T00:23:18;11.80;;;7.80;;
4434;SDS011;46552;52.150;8.428;2022-10-26T00:25:52;14.33;;;8.57;;
4434;SDS011;46552;52.150;8.428;2022-10-26T00:28:20;10.73;;;7.63;;
4434;SDS011;46552;52.150;8.428;2022-10-26T00:30:49;17.00;;;8.77;;
4434;SDS011;46552;52.150;8.428;2022-10-26T00:33:17;12.60;;;8.23;;
4434;SDS011;46552;52.150;8.428;2022-10-26T00:35:46;12.87;;;8.40;;
4434;SDS011;46552;52.150;8.428;2022-10-26T00:38:14;12.03;;;8.00;;
4434;SDS011;46552;52.150;8.428;2022-10-26T00:40:43;14.00;;;8.43;;
4434;SDS011;46552;52.150;8.428;2022-10-26T00:43:15;18.10;;;9.17;;
4434;SDS011;46552;52.150;8.428;2022-10-26T00:45:59;13.17;;;8.90;;
4434;SDS011;46552;52.150;8.428;2022-10-26T00:48:30;13.50;;;8.23;;
4434;SDS011;46552;52.150;8.428;2022-10-26T00:51:00;13.77;;;7.60;;
4434;SDS011;46552;52.150;8.428;2022-10-26T00:53:31;14.80;;;7.30;;
4434;SDS011;46552;52.150;8.428;2022-10-26T00:55:59;9.33;;;6.70;;
4434;SDS011;46552;52.150;8.428;2022-10-26T00:58:27;11.60;;;6.40;;
4434;SDS011;46552;52.150;8.428;2022-10-26T01:00:56;10.17;;;6.97;;
4434;SDS011;46552;52.150;8.428;2022-10-26T01:03:26;14.33;;;6.73;;
4434;SDS011;46552;52.150;8.428;2022-10-26T01:05:56;9.37;;;6.63;;
4434;SDS011;46552;52.150;8.428;2022-10-26T01:08:23;10.33;;;5.97;;
4434;SDS011;46552;52.150;8.428;2022-10-26T01:10:52;10.23;;;7.40;;
4434;SDS011;46552;52.150;8.428;2022-10-26T01:13:21;14.70;;;7.87;;
4434;SDS011;46552;52.150;8.428;2022-10-26T01:15:50;17.80;;;7.90;;
4434;SDS011;46552;52.150;8.428;2022-10-26T01:18:32;17.20;;;8.80;;
4434;SDS011;46552;52.150;8.428;2022-10-26T01:27:26;11.30;;;7.00;;
4434;SDS011;46552;52.150;8.428;2022-10-26T01:32:50;10.30;;;6.47;;
4434;SDS011;46552;52.150;8.428;2022-10-26T01:35:29;28.23;;;7.03;;
4434;SDS011;46552;52.150;8.428;2022-10-26T01:38:03;12.40;;;6.50;;
4434;SDS011;46552;52.150;8.428;2022-10-26T01:40:34;14.27;;;8.10;;
4434;SDS011;46552;52.150;8.428;2022-10-26T01:43:06;14.83;;;7.33;;
4434;SDS011;46552;52.150;8.428;2022-10-26T01:45:36;11.67;;;7.27;;
4434;SDS011;46552;52.150;8.428;2022-10-26T01:48:09;10.17;;;5.97;;
4434;SDS011;46552;52.150;8.428;2022-10-26T01:50:41;7.83;;;5.83;;
4434;SDS011;46552;52.150;8.428;2022-10-26T01:53:12;12.97;;;5.93;;
4434;SDS011;46552;52.150;8.428;2022-10-26T01:55:46;10.40;;;6.40;;
4434;SDS011;46552;52.150;8.428;2022-10-26T01:58:22;10.10;;;5.50;;
4434;SDS011;46552;52.150;8.428;2022-10-26T02:01:17;12.77;;;7.20;;
4434;SDS011;46552;52.150;8.428;2022-10-26T02:04:02;11.30;;;5.77;;
4434;SDS011;46552;52.150;8.428;2022-10-26T02:06:40;14.83;;;7.87;;
4434;SDS011;46552;52.150;8.428;2022-10-26T02:09:16;16.33;;;7.97;;
4434;SDS011;46552;52.150;8.428;2022-10-26T02:11:50;17.43;;;8.27;;
4434;SDS011;46552;52.150;8.428;2022-10-26T02:14:20;13.80;;;8.10;;
4434;SDS011;46552;52.150;8.428;2022-10-26T02:16:53;13.47;;;8.63;;
4434;SDS011;46552;52.150;8.428;2022-10-26T02:19:27;14.80;;;8.27;;
4434;SDS011;46552;52.150;8.428;2022-10-26T02:22:04;12.87;;;7.37;;
4434;SDS011;46552;52.150;8.428;2022-10-26T02:24:38;18.80;;;7.50;;
4434;SDS011;46552;52.150;8.428;2022-10-26T02:27:07;13.27;;;8.40;;
4434;SDS011;46552;52.150;8.428;2022-10-26T02:29:42;12.93;;;6.87;;
4434;SDS011;46552;52.150;8.428;2022-10-26T02:32:10;10.77;;;6.27;;
4434;SDS011;46552;52.150;8.428;2022-10-26T02:34:40;20.00;;;7.20;;
4434;SDS011;46552;52.150;8.428;2022-10-26T02:37:11;15.93;;;9.57;;
4434;SDS011;46552;52.150;8.428;2022-10-26T02:39:40;16.53;;;8.90;;
4434;SDS011;46552;52.150;8.428;2022-10-26T02:42:13;32.60;;;10.00;;
4434;SDS011;46552;52.150;8.428;2022-10-26T02:44:41;20.63;;;8.10;;
4434;SDS011;46552;52.150;8.428;2022-10-26T02:47:11;11.47;;;6.97;;
4434;SDS011;46552;52.150;8.428;2022-10-26T02:49:46;12.30;;;6.60;;
4434;SDS011;46552;52.150;8.428;2022-10-26T02:52:15;14.87;;;7.50;;
4434;SDS011;46552;52.150;8.428;2022-10-26T02:54:50;13.27;;;7.90;;
4434;SDS011;46552;52.150;8.428;2022-10-26T02:57:19;13.20;;;7.50;;
4434;SDS011;46552;52.150;8.428;2022-10-26T02:59:51;13.17;;;8.70;;
4434;SDS011;46552;52.150;8.428;2022-10-26T03:02:20;14.57;;;8.57;;
4434;SDS011;46552;52.150;8.428;2022-10-26T03:04:50;17.10;;;9.37;;
4434;SDS011;46552;52.150;8.428;2022-10-26T03:07:21;15.43;;;9.33;;
4434;SDS011;46552;52.150;8.428;2022-10-26T03:09:48;16.23;;;9.20;;
4434;SDS011;46552;52.150;8.428;2022-10-26T03:12:15;14.87;;;9.30;;
4434;SDS011;46552;52.150;8.428;2022-10-26T03:14:43;14.00;;;7.23;;
4434;SDS011;46552;52.150;8.428;2022-10-26T03:17:10;11.73;;;7.30;;
4434;SDS011;46552;52.150;8.428;2022-10-26T03:19:37;13.60;;;7.30;;
4434;SDS011;46552;52.150;8.428;2022-10-26T03:22:06;16.53;;;9.23;;
4434;SDS011;46552;52.150;8.428;2022-10-26T03:24:33;11.20;;;7.17;;
4434;SDS011;46552;52.150;8.428;2022-10-26T03:27:00;12.20;;;7.47;;
4434;SDS011;46552;52.150;8.428;2022-10-26T03:29:28;13.30;;;7.13;;
4434;SDS011;46552;52.150;8.428;2022-10-26T03:31:54;8.70;;;5.80;;
4434;SDS011;46552;52.150;8.428;2022-10-26T03:34:22;9.97;;;7.60;;
4434;SDS011;46552;52.150;8.428;2022-10-26T03:36:49;12.53;;;6.30;;
4434;SDS011;46552;52.150;8.428;2022-10-26T03:39:18;14.50;;;6.50;;
4434;SDS011;46552;52.150;8.428;2022-10-26T03:41:45;12.43;;;6.80;;
4434;SDS011;46552;52.150;8.428;2022-10-26T03:44:13;12.90;;;6.90;;
4434;SDS011;46552;52.150;8.428;2022-10-26T03:46:40;10.47;;;6.83;;
4434;SDS011;46552;52.150;8.428;2022-10-26T03:49:07;13.27;;;8.00;;
4434;SDS011;46552;52.150;8.428;2022-10-26T03:51:35;13.27;;;8.33;;
4434;SDS011;46552;52.150;8.428;2022-10-26T03:54:02;17.83;;;8.30;;
4434;SDS011;46552;52.150;8.428;2022-10-26T03:56:31;11.17;;;7.57;;
4434;SDS011;46552;52.150;8.428;2022-10-26T03:58:58;18.60;;;7.97;;
4434;SDS011;46552;52.150;8.428;2022-10-26T04:01:25;13.37;;;7.80;;
4434;SDS011;46552;52.150;8.428;2022-10-26T04:03:54;14.03;;;8.13;;
4434;SDS011;46552;52.150;8.428;2022-10-26T04:06:21;12.13;;;7.17;;
4434;SDS011;46552;52.150;8.428;2022-10-26T04:08:48;17.50;;;8.93;;
4434;SDS011;46552;52.150;8.428;2022-10-26T04:11:15;11.70;;;7.30;;
4434;SDS011;46552;52.150;8.428;2022-10-26T04:13:44;15.93;;;7.60;;
4434;SDS011;46552;52.150;8.428;2022-10-26T04:16:13;16.40;;;6.87;;
4434;SDS011;46552;52.150;8.428;2022-10-26T04:18:40;20.50;;;7.73;;
4434;SDS011;46552;52.150;8.428;2022-10-26T04:21:07;12.03;;;7.80;;
4434;SDS011;46552;52.150;8.428;2022-10-26T04:23:34;12.87;;;7.80;;
4434;SDS011;46552;52.150;8.428;2022-10-26T04:26:03;11.40;;;7.33;;
4434;SDS011;46552;52.150;8.428;2022-10-26T04:28:30;16.13;;;8.83;;
4434;SDS011;46552;52.150;8.428;2022-10-26T04:30:59;17.73;;;10.90;;
4434;SDS011;46552;52.150;8.428;2022-10-26T04:33:26;21.10;;;9.97;;
4434;SDS011;46552;52.150;8.428;2022-10-26T04:35:57;13.50;;;8.43;;
4434;SDS011;46552;52.150;8.428;2022-10-26T04:38:24;13.67;;;9.63;;
4434;SDS011;46552;52.150;8.428;2022-10-26T04:40:52;17.37;;;8.67;;
4434;SDS011;46552;52.150;8.428;2022-10-26T04:43:19;13.37;;;8.80;;
4434;SDS011;46552;52.150;8.428;2022-10-26T04:45:46;17.93;;;9.47;;
4434;SDS011;46552;52.150;8.428;2022-10-26T04:48:15;15.27;;;8.90;;
4434;SDS011;46552;52.150;8.428;2022-10-26T04:50:42;18.23;;;10.57;;
4434;SDS011;46552;52.150;8.428;2022-10-26T04:53:10;16.50;;;9.03;;
4434;SDS011;46552;52.150;8.428;2022-10-26T04:55:37;18.27;;;7.40;;
4434;SDS011;46552;52.150;8.428;2022-10-26T04:58:04;11.00;;;7.67;;
4434;SDS011;46552;52.150;8.428;2022-10-26T05:00:32;13.10;;;7.80;;
4434;SDS011;46552;52.150;8.428;2022-10-26T05:03:00;14.57;;;8.53;;
4434;SDS011;46552;52.150;8.428;2022-10-26T05:05:30;20.67;;;10.30;;
4434;SDS011;46552;52.150;8.428;2022-10-26T05:07:58;15.47;;;8.80;;
4434;SDS011;46552;52.150;8.428;2022-10-26T05:10:26;15.27;;;8.60;;
4434;SDS011;46552;52.150;8.428;2022-10-26T05:12:54;17.47;;;9.70;;
4434;SDS011;46552;52.150;8.428;2022-10-26T05:15:23;18.20;;;9.73;;
4434;SDS011;46552;52.150;8.428;2022-10-26T05:17:54;16.70;;;9.43;;
4434;SDS011;46552;52.150;8.428;2022-10-26T05:20:22;14.77;;;8.77;;
4434;SDS011;46552;52.150;8.428;2022-10-26T05:22:55;17.37;;;8.50;;
4434;SDS011;46552;52.150;8.428;2022-10-26T05:25:22;15.50;;;9.63;;
4434;SDS011;46552;52.150;8.428;2022-10-26T05:27:50;18.57;;;9.60;;
4434;SDS011;46552;52.150;8.428;2022-10-26T05:30:17;18.27;;;10.50;;
4434;SDS011;46552;52.150;8.428;2022-10-26T05:32:44;16.00;;;9.60;;
4434;SDS011;46552;52.150;8.428;2022-10-26T05:35:18;18.20;;;10.57;;
4434;SDS011;46552;52.150;8.428;2022-10-26T05:37:45;20.43;;;10.30;;
4434;SDS011;46552;52.150;8.428;2022-10-26T05:40:13;17.57;;;9.07;;
4434;SDS011;46552;52.150;8.428;2022-10-26T05:42:41;15.70;;;9.03;;
4434;SDS011;46552;52.150;8.428;2022-10-26T05:45:09;16.97;;;10.00;;
4434;SDS011;46552;52.150;8.428;2022-10-26T05:47:37;17.77;;;9.50;;
4434;SDS011;46552;52.150;8.428;2022-10-26T05:50:05;18.27;;;9.70;;
4434;SDS011;46552;52.150;8.428;2022-10-26T05:52:37;12.00;;;6.50;;
4434;SDS011;46552;52.150;8.428;2022-10-26T05:55:05;20.33;;;9.10;;
4434;SDS011;46552;52.150;8.428;2022-10-26T05:57:34;17.73;;;9.30;;
4434;SDS011;46552;52.150;8.428;2022-10-26T06:00:05;14.50;;;8.13;;
4434;SDS011;46552;52.150;8.428;2022-10-26T06:02:35;14.33;;;9.20;;
4434;SDS011;46552;52.150;8.428;2022-10-26T06:05:12;14.00;;;9.47;;
4434;SDS011;46552;52.150;8.428;2022-10-26T06:07:46;14.80;;;8.20;;
4434;SDS011;46552;52.150;8.428;2022-10-26T06:10:14;14.60;;;9.33;;
4434;SDS011;46552;52.150;8.428;2022-10-26T06:12:44;18.33;;;10.00;;
4434;SDS011;46552;52.150;8.428;2022-10-26T06:15:13;17.10;;;8.90;;
4434;SDS011;46552;52.150;8.428;2022-10-26T06:17:45;18.03;;;9.07;;
4434;SDS011;46552;52.150;8.428;2022-10-26T06:20:26;16.90;;;9.77;;
4434;SDS011;46552;52.150;8.428;2022-10-26T06:23:12;25.33;;;11.03;;
4434;SDS011;46552;52.150;8.428;2022-10-26T06:26:00;18.43;;;9.83;;
4434;SDS011;46552;52.150;8.428;2022-10-26T06:28:36;17.23;;;10.00;;
4434;SDS011;46552;52.150;8.428;2022-10-26T06:31:09;16.10;;;9.97;;
4434;SDS011;46552;52.150;8.428;2022-10-26T06:33:36;17.97;;;11.67;;
4434;SDS011;46552;52.150;8.428;2022-10-26T06:36:07;23.70;;;12.57;;
4434;SDS011;46552;52.150;8.428;2022-10-26T06:38:45;20.57;;;10.70;;
4434;SDS011;46552;52.150;8.428;2022-10-26T06:41:14;18.37;;;10.50;;
4434;SDS011;46552;52.150;8.428;2022-10-26T06:43:44;21.40;;;10.07;;
4434;SDS011;46552;52.150;8.428;2022-10-26T06:46:14;14.93;;;9.27;;
4434;SDS011;46552;52.150;8.428;2022-10-26T06:48:53;21.20;;;11.00;;
4434;SDS011;46552;52.150;8.428;2022-10-26T06:51:25;19.27;;;10.43;;
4434;SDS011;46552;52.150;8.428;2022-10-26T06:53:56;32.93;;;12.07;;
4434;SDS011;46552;52.150;8.428;2022-10-26T06:56:30;16.30;;;9.43;;
4434;SDS011;46552;52.150;8.428;2022-10-26T06:59:03;25.00;;;11.80;;
4434;SDS011;46552;52.150;8.428;2022-10-26T07:01:35;24.13;;;11.40;;
4434;SDS011;46552;52.150;8.428;2022-10-26T07:04:02;24.73;;;10.50;;
4434;SDS011;46552;52.150;8.428;2022-10-26T07:06:30;32.13;;;12.13;;
4434;SDS011;46552;52.150;8.428;2022-10-26T07:08:57;20.97;;;11.77;;
4434;SDS011;46552;52.150;8.428;2022-10-26T07:11:25;46.10;;;12.60;;
4434;SDS011;46552;52.150;8.428;2022-10-26T07:13:52;26.37;;;11.17;;
4434;SDS011;46552;52.150;8.428;2022-10-26T07:16:21;28.23;;;12.40;;
4434;SDS011;46552;52.150;8.428;2022-10-26T07:18:48;26.30;;;11.57;;
4434;SDS011;46552;52.150;8.428;2022-10-26T07:21:15;19.60;;;10.67;;
4434;SDS011;46552;52.150;8.428;2022-10-26T07:23:43;20.30;;;11.27;;
4434;SDS011;46552;52.150;8.428;2022-10-26T07:26:10;21.80;;;12.70;;
4434;SDS011;46552;52.150;8.428;2022-10-26T07:28:37;25.63;;;13.40;;
4434;SDS011;46552;52.150;8.428;2022-10-26T07:31:04;25.80;;;13.37;;
4434;SDS011;46552;52.150;8.428;2022-10-26T07:33:33;24.40;;;12.47;;
4434;SDS011;46552;52.150;8.428;2022-10-26T07:36:00;21.70;;;11.87;;
4434;SDS011;46552;52.150;8.428;2022-10-26T07:38:27;24.03;;;13.33;;
4434;SDS011;46552;52.150;8.428;2022-10-26T07:40:54;23.30;;;12.50;;
4434;SDS011;46552;52.150;8.428;2022-10-26T07:43:21;28.73;;;12.63;;
4434;SDS011;46552;52.150;8.428;2022-10-26T07:45:48;34.93;;;14.10;;
4434;SDS011;46552;52.150;8.428;2022-10-26T07:48:17;21.80;;;11.90;;
4434;SDS011;46552;52.150;8.428;2022-10-26T07:50:45;21.90;;;11.30;;
4434;SDS011;46552;52.150;8.428;2022-10-26T07:53:13;23.37;;;12.37;;
4434;SDS011;46552;52.150;8.428;2022-10-26T07:55:40;26.53;;;12.73;;
4434;SDS011;46552;52.150;8.428;2022-10-26T07:58:07;17.90;;;9.87;;
4434;SDS011;46552;52.150;8.428;2022-10-26T08:00:34;24.03;;;10.20;;
4434;SDS011;46552;52.150;8.428;2022-10-26T08:03:01;16.67;;;9.47;;
4434;SDS011;46552;52.150;8.428;2022-10-26T08:05:28;22.43;;;9.80;;
4434;SDS011;46552;52.150;8.428;2022-10-26T08:07:57;15.57;;;9.80;;
4434;SDS011;46552;52.150;8.428;2022-10-26T08:10:25;13.10;;;8.10;;
4434;SDS011;46552;52.150;8.428;2022-10-26T08:12:52;12.73;;;7.63;;
4434;SDS011;46552;52.150;8.428;2022-10-26T08:15:19;20.10;;;7.77;;
4434;SDS011;46552;52.150;8.428;2022-10-26T08:17:46;9.30;;;6.50;;
4434;SDS011;46552;52.150;8.428;2022-10-26T08:20:14;9.03;;;5.90;;
4434;SDS011;46552;52.150;8.428;2022-10-26T08:22:41;15.53;;;6.47;;
4434;SDS011;46552;52.150;8.428;2022-10-26T08:25:11;23.83;;;7.47;;
4434;SDS011;46552;52.150;8.428;2022-10-26T08:27:38;12.00;;;7.20;;
4434;SDS011;46552;52.150;8.428;2022-10-26T08:30:06;10.40;;;6.70;;
4434;SDS011;46552;52.150;8.428;2022-10-26T08:32:33;10.63;;;6.10;;
4434;SDS011;46552;52.150;8.428;2022-10-26T08:35:00;12.53;;;6.33;;
4434;SDS011;46552;52.150;8.428;2022-10-26T08:37:28;13.37;;;5.97;;
4434;SDS011;46552;52.150;8.428;2022-10-26T08:39:56;11.13;;;6.00;;
4434;SDS011;46552;52.150;8.428;2022-10-26T08:42:26;8.13;;;5.90;;
4434;SDS011;46552;52.150;8.428;2022-10-26T08:44:59;12.80;;;6.00;;
4434;SDS011;46552;52.150;8.428;2022-10-26T08:47:29;12.30;;;5.83;;
4434;SDS011;46552;52.150;8.428;2022-10-26T08:50:00;13.73;;;6.80;;
4434;SDS011;46552;52.150;8.428;2022-10-26T08:52:31;13.00;;;6.00;;
4434;SDS011;46552;52.150;8.428;2022-10-26T08:55:04;11.30;;;6.03;;
4434;SDS011;46552;52.150;8.428;2022-10-26T08:57:40;13.03;;;7.27;;
4434;SDS011;46552;52.150;8.428;2022-10-26T09:00:10;11.90;;;7.10;;
4434;SDS011;46552;52.150;8.428;2022-10-26T09:02:40;13.30;;;6.67;;
4434;SDS011;46552;52.150;8.428;2022-10-26T09:05:11;13.27;;;7.13;;
4434;SDS011;46552;52.150;8.428;2022-10-26T09:07:45;13.03;;;6.50;;
4434;SDS011;46552;52.150;8.428;2022-10-26T09:10:24;17.33;;;6.83;;
4434;SDS011;46552;52.150;8.428;2022-10-26T09:13:04;15.53;;;6.10;;
4434;SDS011;46552;52.150;8.428;2022-10-26T09:15:39;16.30;;;6.27;;
4434;SDS011;46552;52.150;8.428;2022-10-26T09:18:17;11.27;;;7.00;;
4434;SDS011;46552;52.150;8.428;2022-10-26T09:20:56;13.37;;;6.93;;
4434;SDS011;46552;52.150;8.428;2022-10-26T09:23:42;12.00;;;6.63;;
4434;SDS011;46552;52.150;8.428;2022-10-26T09:26:28;20.53;;;5.70;;
4434;SDS011;46552;52.150;8.428;2022-10-26T09:29:01;9.07;;;5.90;;
4434;SDS011;46552;52.150;8.428;2022-10-26T09:31:31;13.03;;;4.70;;
4434;SDS011;46552;52.150;8.428;2022-10-26T09:34:05;13.30;;;5.67;;
4434;SDS011;46552;52.150;8.428;2022-10-26T09:36:33;10.20;;;5.80;;
4434;SDS011;46552;52.150;8.428;2022-10-26T09:39:02;18.67;;;6.00;;
4434;SDS011;46552;52.150;8.428;2022-10-26T09:41:39;14.23;;;5.53;;
4434;SDS011;46552;52.150;8.428;2022-10-26T09:44:15;11.07;;;5.50;;
4434;SDS011;46552;52.150;8.428;2022-10-26T09:46:50;11.70;;;4.30;;
4434;SDS011;46552;52.150;8.428;2022-10-26T09:49:22;12.57;;;5.20;;
4434;SDS011;46552;52.150;8.428;2022-10-26T09:51:55;10.20;;;5.37;;
4434;SDS011;46552;52.150;8.428;2022-10-26T09:54:23;9.00;;;4.40;;
4434;SDS011;46552;52.150;8.428;2022-10-26T09:56:50;9.80;;;4.60;;
4434;SDS011;46552;52.150;8.428;2022-10-26T09:59:22;12.53;;;4.20;;
4434;SDS011;46552;52.150;8.428;2022-10-26T10:01:50;9.90;;;3.70;;
4434;SDS011;46552;52.150;8.428;2022-10-26T10:04:18;6.17;;;4.00;;
4434;SDS011;46552;52.150;8.428;2022-10-26T10:06:47;9.00;;;3.90;;
4434;SDS011;46552;52.150;8.428;2022-10-26T10:09:16;7.43;;;3.50;;
4434;SDS011;46552;52.150;8.428;2022-10-26T10:11:45;7.27;;;3.87;;
4434;SDS011;46552;52.150;8.428;2022-10-26T10:14:19;6.80;;;3.30;;
4434;SDS011;46552;52.150;8.428;2022-10-26T10:16:49;5.67;;;3.77;;
4434;SDS011;46552;52.150;8.428;2022-10-26T10:19:23;7.07;;;3.57;;
4434;SDS011;46552;52.150;8.428;2022-10-26T10:21:53;7.67;;;3.73;;
4434;SDS011;46552;52.150;8.428;2022-10-26T10:24:23;12.20;;;3.43;;
4434;SDS011;46552;52.150;8.428;2022-10-26T10:26:55;8.90;;;4.10;;
4434;SDS011;46552;52.150;8.428;2022-10-26T10:29:24;7.23;;;3.57;;
4434;SDS011;46552;52.150;8.428;2022-10-26T10:31:57;7.93;;;3.60;;
4434;SDS011;46552;52.150;8.428;2022-10-26T10:34:25;7.13;;;3.40;;
4434;SDS011;46552;52.150;8.428;2022-10-26T10:36:53;9.07;;;3.33;;
4434;SDS011;46552;52.150;8.428;2022-10-26T10:42:04;12.40;;;3.37;;
4434;SDS011;46552;52.150;8.428;2022-10-26T10:44:39;6.10;;;3.00;;
4434;SDS011;46552;52.150;8.428;2022-10-26T10:47:17;11.80;;;3.13;;
4434;SDS011;46552;52.150;8.428;2022-10-26T10:49:56;13.70;;;3.20;;
4434;SDS011;46552;52.150;8.428;2022-10-26T10:52:27;5.20;;;2.57;;
4434;SDS011;46552;52.150;8.428;2022-10-26T10:55:15;6.83;;;3.20;;
4434;SDS011;46552;52.150;8.428;2022-10-26T10:57:51;9.07;;;2.90;;
4434;SDS011;46552;52.150;8.428;2022-10-26T11:00:25;7.00;;;3.50;;
4434;SDS011;46552;52.150;8.428;2022-10-26T11:03:04;8.23;;;3.10;;
4434;SDS011;46552;52.150;8.428;2022-10-26T11:08:34;4.67;;;2.57;;
4434;SDS011;46552;52.150;8.428;2022-10-26T11:11:07;7.60;;;3.10;;
4434;SDS011;46552;52.150;8.428;2022-10-26T11:13:37;8.47;;;2.57;;
4434;SDS011;46552;52.150;8.428;2022-10-26T11:16:10;5.80;;;2.70;;
4434;SDS011;46552;52.150;8.428;2022-10-26T11:18:44;9.53;;;2.60;;
4434;SDS011;46552;52.150;8.428;2022-10-26T11:21:18;4.87;;;2.20;;
4434;SDS011;46552;52.150;8.428;2022-10-26T11:23:53;9.50;;;2.40;;
4434;SDS011;46552;52.150;8.428;2022-10-26T11:26:28;5.90;;;2.10;;
4434;SDS011;46552;52.150;8.428;2022-10-26T11:29:00;7.90;;;1.80;;
4434;SDS011;46552;52.150;8.428;2022-10-26T11:31:35;4.53;;;1.47;;
4434;SDS011;46552;52.150;8.428;2022-10-26T11:34:11;7.33;;;1.80;;
4434;SDS011;46552;52.150;8.428;2022-10-26T11:36:44;3.80;;;1.63;;
4434;SDS011;46552;52.150;8.428;2022-10-26T11:39:17;6.70;;;1.50;;
4434;SDS011;46552;52.150;8.428;2022-10-26T11:41:54;3.30;;;1.17;;
4434;SDS011;46552;52.150;8.428;2022-10-26T11:44:28;3.93;;;1.63;;
4434;SDS011;46552;52.150;8.428;2022-10-26T11:47:02;5.83;;;1.50;;
4434;SDS011;46552;52.150;8.428;2022-10-26T11:49:36;3.80;;;1.43;;
4434;SDS011;46552;52.150;8.428;2022-10-26T11:52:09;7.83;;;1.10;;
4434;SDS011;46552;52.150;8.428;2022-10-26T11:54:43;6.80;;;1.67;;
4434;SDS011;46552;52.150;8.428;2022-10-26T11:57:16;4.00;;;1.30;;
4434;SDS011;46552;52.150;8.428;2022-10-26T11:59:45;4.37;;;1.73;;
4434;SDS011;46552;52.150;8.428;2022-10-26T12:02:17;3.20;;;1.23;;
4434;SDS011;46552;52.150;8.428;2022-10-26T12:04:49;8.93;;;1.83;;
4434;SDS011;46552;52.150;8.428;2022-10-26T12:07:21;3.30;;;1.40;;
4434;SDS011;46552;52.150;8.428;2022-10-26T12:09:52;16.03;;;1.83;;
4434;SDS011;46552;52.150;8.428;2022-10-26T12:12:23;9.90;;;1.37;;
4434;SDS011;46552;52.150;8.428;2022-10-26T12:14:58;4.83;;;1.90;;
4434;SDS011;46552;52.150;8.428;2022-10-26T12:17:34;4.93;;;1.90;;
4434;SDS011;46552;52.150;8.428;2022-10-26T12:20:12;10.10;;;1.90;;
4434;SDS011;46552;52.150;8.428;2022-10-26T12:23:08;3.67;;;1.67;;
4434;SDS011;46552;52.150;8.428;2022-10-26T12:25:37;3.50;;;1.43;;
4434;SDS011;46552;52.150;8.428;2022-10-26T12:28:13;7.07;;;1.80;;
4434;SDS011;46552;52.150;8.428;2022-10-26T12:34:10;4.90;;;1.83;;
4434;SDS011;46552;52.150;8.428;2022-10-26T12:39:48;9.60;;;2.40;;
4434;SDS011;46552;52.150;8.428;2022-10-26T12:42:26;12.47;;;2.70;;
4434;SDS011;46552;52.150;8.428;2022-10-26T12:45:05;9.20;;;2.90;;
4434;SDS011;46552;52.150;8.428;2022-10-26T12:47:59;6.90;;;2.20;;
4434;SDS011;46552;52.150;8.428;2022-10-26T12:50:28;17.23;;;2.77;;
4434;SDS011;46552;52.150;8.428;2022-10-26T12:52:56;6.50;;;2.77;;
4434;SDS011;46552;52.150;8.428;2022-10-26T12:58:42;15.90;;;2.77;;
4434;SDS011;46552;52.150;8.428;2022-10-26T13:07:23;10.23;;;2.33;;
4434;SDS011;46552;52.150;8.428;2022-10-26T13:09:55;7.53;;;2.20;;
4434;SDS011;46552;52.150;8.428;2022-10-26T13:12:25;6.17;;;2.20;;
4434;SDS011;46552;52.150;8.428;2022-10-26T13:15:01;6.17;;;2.43;;
4434;SDS011;46552;52.150;8.428;2022-10-26T13:17:32;8.80;;;3.03;;
4434;SDS011;46552;52.150;8.428;2022-10-26T13:20:02;6.23;;;2.60;;
4434;SDS011;46552;52.150;8.428;2022-10-26T13:22:32;11.20;;;2.27;;
4434;SDS011;46552;52.150;8.428;2022-10-26T13:25:18;11.80;;;2.90;;
4434;SDS011;46552;52.150;8.428;2022-10-26T13:27:56;6.33;;;2.63;;
4434;SDS011;46552;52.150;8.428;2022-10-26T13:33:10;9.10;;;2.50;;
4434;SDS011;46552;52.150;8.428;2022-10-26T13:35:53;5.20;;;1.97;;
4434;SDS011;46552;52.150;8.428;2022-10-26T13:38:23;9.73;;;2.70;;
4434;SDS011;46552;52.150;8.428;2022-10-26T13:41:01;11.87;;;2.30;;
4434;SDS011;46552;52.150;8.428;2022-10-26T13:43:32;7.60;;;2.00;;
4434;SDS011;46552;52.150;8.428;2022-10-26T13:46:02;9.20;;;2.73;;
4434;SDS011;46552;52.150;8.428;2022-10-26T13:48:32;5.83;;;2.10;;
4434;SDS011;46552;52.150;8.428;2022-10-26T13:51:04;6.97;;;2.00;;
4434;SDS011;46552;52.150;8.428;2022-10-26T13:53:40;14.63;;;3.20;;
4434;SDS011;46552;52.150;8.428;2022-10-26T13:56:16;7.20;;;2.43;;
4434;SDS011;46552;52.150;8.428;2022-10-26T13:58:48;6.97;;;2.37;;
4434;SDS011;46552;52.150;8.428;2022-10-26T14:01:20;9.80;;;2.50;;
4434;SDS011;46552;52.150;8.428;2022-10-26T14:03:48;12.33;;;2.70;;
4434;SDS011;46552;52.150;8.428;2022-10-26T14:06:18;13.60;;;2.53;;
4434;SDS011;46552;52.150;8.428;2022-10-26T14:08:50;7.83;;;2.67;;
4434;SDS011;46552;52.150;8.428;2022-10-26T14:11:29;7.63;;;2.70;;
4434;SDS011;46552;52.150;8.428;2022-10-26T14:13:59;8.63;;;2.77;;
4434;SDS011;46552;52.150;8.428;2022-10-26T14:16:29;7.17;;;2.57;;
4434;SDS011;46552;52.150;8.428;2022-10-26T14:18:58;5.50;;;2.13;;
4434;SDS011;46552;52.150;8.428;2022-10-26T14:21:26;8.00;;;2.70;;
4434;SDS011;46552;52.150;8.428;2022-10-26T14:23:55;8.10;;;2.57;;
4434;SDS011;46552;52.150;8.428;2022-10-26T14:26:25;16.30;;;3.10;;
4434;SDS011;46552;52.150;8.428;2022-10-26T14:28:54;8.03;;;2.40;;
4434;SDS011;46552;52.150;8.428;2022-10-26T14:31:23;16.40;;;3.70;;
4434;SDS011;46552;52.150;8.428;2022-10-26T14:33:52;11.40;;;3.20;;
4434;SDS011;46552;52.150;8.428;2022-10-26T14:36:22;9.57;;;2.77;;
4434;SDS011;46552;52.150;8.428;2022-10-26T14:38:53;9.00;;;3.03;;
4434;SDS011;46552;52.150;8.428;2022-10-26T14:41:25;11.53;;;2.30;;
4434;SDS011;46552;52.150;8.428;2022-10-26T14:43:54;9.40;;;4.30;;
4434;SDS011;46552;52.150;8.428;2022-10-26T14:46:31;8.03;;;3.00;;
4434;SDS011;46552;52.150;8.428;2022-10-26T14:49:00;10.73;;;2.63;;
4434;SDS011;46552;52.150;8.428;2022-10-26T14:51:28;14.43;;;3.03;;
4434;SDS011;46552;52.150;8.428;2022-10-26T14:53:59;5.83;;;2.47;;
4434;SDS011;46552;52.150;8.428;2022-10-26T14:56:30;18.37;;;3.00;;
4434;SDS011;46552;52.150;8.428;2022-10-26T14:59:09;21.70;;;3.93;;
4434;SDS011;46552;52.150;8.428;2022-10-26T15:01:48;10.87;;;2.70;;
4434;SDS011;46552;52.150;8.428;2022-10-26T15:04:27;19.10;;;3.57;;
4434;SDS011;46552;52.150;8.428;2022-10-26T15:07:00;12.07;;;3.07;;
4434;SDS011;46552;52.150;8.428;2022-10-26T15:09:37;18.50;;;3.50;;
4434;SDS011;46552;52.150;8.428;2022-10-26T15:12:16;11.27;;;4.07;;
4434;SDS011;46552;52.150;8.428;2022-10-26T15:14:48;8.50;;;2.83;;
4434;SDS011;46552;52.150;8.428;2022-10-26T15:17:18;14.00;;;3.50;;
4434;SDS011;46552;52.150;8.428;2022-10-26T15:19:49;16.77;;;3.57;;
4434;SDS011;46552;52.150;8.428;2022-10-26T15:22:21;11.63;;;3.63;;
4434;SDS011;46552;52.150;8.428;2022-10-26T15:24:51;10.63;;;3.57;;
4434;SDS011;46552;52.150;8.428;2022-10-26T15:27:22;12.43;;;3.63;;
4434;SDS011;46552;52.150;8.428;2022-10-26T15:29:51;6.53;;;2.60;;
4434;SDS011;46552;52.150;8.428;2022-10-26T15:32:34;8.17;;;3.27;;
4434;SDS011;46552;52.150;8.428;2022-10-26T15:38:01;7.13;;;3.30;;
4434;SDS011;46552;52.150;8.428;2022-10-26T15:40:28;9.23;;;3.43;;
4434;SDS011;46552;52.150;8.428;2022-10-26T15:42:59;10.90;;;3.30;;
4434;SDS011;46552;52.150;8.428;2022-10-26T15:45:27;7.40;;;2.50;;
4434;SDS011;46552;52.150;8.428;2022-10-26T15:47:57;9.53;;;2.90;;
4434;SDS011;46552;52.150;8.428;2022-10-26T15:50:26;9.13;;;3.00;;